Weather observations for the past three days for
Big Spring, Big Spring McMahon-Wrinkle Airport
Imperial (Metric)
Date Time (cdt) Wind (mph) Vis. (mi.) Weather Sky Cond. Temperature (ºF) Relative Humidity Wind Chill (°F) Heat Index (°F) Pressure Precipitation (in)
Air Dwpt 6 hour altimeter (in) sea level (mb) 1 hr 3 hr 6 hr
Max. Min.
06 23:35 E 6 10.00 Fair CLR 61.5 42.6 50% 30.02 0.0
06 23:15 E 9 10.00 Fair CLR 62.2 42.4 48% 30.01 0.0
06 22:55 E 9 10.00 Fair CLR 63 42.4 47% 30.01 0.0
06 22:15 E 10 G 16 10.00 Fair CLR 64.6 42.1 44% 29.98 0.0
06 21:55 E 10 G 17 10.00 Fair CLR 65.5 41.7 42% 29.97 0.0
06 21:35 E 9 10.00 Fair CLR 66.6 41.7 41% 29.96 0.0
06 21:15 E 8 10.00 Fair CLR 67.1 41.7 40% 29.96 0.0
06 20:35 E 6 10.00 Fair CLR 69.3 42.3 38% 29.94 0.0
06 20:15 E 12 10.00 Fair CLR 70.7 42.6 36% 29.93 0.0
06 19:55 E 15 10.00 Fair CLR 71.8 43 36% 29.92 0.0
06 19:35 E 13 G 18 10.00 Fair CLR 72.9 43.2 34% 29.92 0.0
06 19:15 E 12 10.00 Fair CLR 73.9 43.3 33% 29.92 0.0
06 18:55 NE 7 10.00 Fair CLR 74.7 43.3 77.4 61.9 33% 29.92 0.0
06 18:35 NE 8 10.00 Fair CLR 75.2 43.9 33% 77 29.92 0.0
06 18:15 E 5 10.00 Fair CLR 76.1 43.3 31% 77 29.92 0.0
06 17:55 E 7 10.00 Fair CLR 76.5 42.6 30% 77 29.92 0.0
06 17:35 N 12 G 16 10.00 Fair CLR 75.2 41 29% 77 29.92 0.0
06 17:15 NE 8 10.00 Fair CLR 76.5 42.3 29% 77 29.92 0.0
06 16:55 NE 6 10.00 Fair CLR 75 42.3 31% 77 29.92 0.0
06 16:35 NE 8 10.00 Fair CLR 75 42.8 32% 77 29.92 0.0
06 16:15 NE 6 10.00 Fair CLR 75.4 43.5 32% 77 29.93 0.0
06 15:55 N 9 10.00 Fair CLR 73.4 43.3 34% 29.94 0.0
06 15:35 NE 5 10.00 Fair CLR 72.3 43.7 36% 29.95 0.0
06 15:15 E 9 10.00 Fair CLR 71.8 44.1 37% 29.96 0.0
06 14:55 NE 8 10.00 Fair CLR 70.3 44.4 39% 29.96 0.0
06 14:35 N 9 10.00 Fair CLR 68.9 44.1 41% 29.97 0.0
06 14:15 SE 6 10.00 Fair CLR 67.8 44.4 43% 29.97 0.0
06 13:55 N 8 G 17 10.00 Fair CLR 67.3 44.6 44% 29.98 0.0
06 13:35 N 14 10.00 Fair CLR 65.5 44.4 47% 29.99 0.0
06 13:15 N 10 10.00 Fair CLR 63.5 44.1 49% 29.99 0.0
06 12:55 N 9 10.00 Fair CLR 62.2 43.9 63.9 50.2 51% 30 0.0
06 12:35 N 8 G 16 10.00 Fair CLR 61.2 44.1 54% 30 0.0
06 12:15 N 10 10.00 Fair CLR 59.5 43.9 56% 30 0.0
06 11:55 N 14 10.00 Fair CLR 58.5 43.5 58% 30 0.0
06 11:35 N 14 10.00 Fair CLR 57.2 43.7 61% 30.01 0.0
06 10:55 NE 12 G 23 10.00 Partly Cloudy SCT015 55.4 43.5 64% 30 0.0
06 10:35 N 13 G 22 10.00 Mostly Cloudy BKN015 53.8 43.3 68% 30.01 0.0
06 10:15 NE 12 G 18 10.00 Overcast OVC015 52.2 43.2 72% 30.01 0.0
06 09:15 NE 16 G 28 10.00 Overcast OVC015 51.1 43.3 75% 29.99 0.0
06 08:55 N 20 G 26 10.00 Overcast OVC015 51.1 42.8 73% 29.98 0.0
06 08:35 NE 9 G 25 10.00 Mostly Cloudy BKN015 50.9 42.8 74% 29.99 0.0
06 08:15 N 24 G 32 10.00 Partly Cloudy and Breezy SCT015 50.4 42.1 73% 29.97 0.0
06 07:55 N 22 G 28 10.00 Fair and Breezy CLR 50.5 41.9 72% 29.95 0.0
06 07:35 N 20 10.00 Fair CLR 51.4 42.8 72% 29.94 0.0
06 07:15 N 20 G 25 10.00 Fair CLR 51.8 43.3 73% 29.92 0.0
06 06:55 N 21 10.00 Fair and Breezy CLR 52 43.7 68.7 52 74% 29.9 0.0
06 06:35 N 16 G 21 10.00 Fair CLR 52.3 44.1 74% 29.89 0.0
06 06:15 N 14 G 22 10.00 Fair CLR 52.9 44.2 73% 29.89 0.0
06 05:55 N 15 G 22 10.00 Fair CLR 53.4 44.4 72% 29.88 0.0
06 05:35 N 10 10.00 Fair CLR 54 44.6 71% 29.89 0.0
06 05:15 N 10 10.00 Fair CLR 54.7 44.8 69% 29.88 0.0
06 04:55 NE 6 10.00 Fair CLR 55.4 45 68% 29.88 0.0
06 04:35 NE 6 10.00 Fair CLR 55.8 45.1 68% 29.87 0.0
06 04:15 NE 6 10.00 Fair CLR 56.7 45.5 66% 29.87 0.0
06 03:55 NE 7 10.00 Fair CLR 57.2 45.7 66% 29.87 0.0
06 03:35 NE 7 10.00 Fair CLR 57.9 45.9 64% 29.86 0.0
06 03:15 NE 9 10.00 Fair CLR 59 46.4 63% 29.86 0.0
06 02:55 NE 12 10.00 Fair CLR 60.3 46.2 60% 29.84 0.0
06 02:35 NE 15 G 20 10.00 Fair CLR 61.7 46 57% 29.84 0.0
06 02:15 NE 13 G 17 10.00 Fair CLR 63.1 45.9 53% 29.84 0.0
06 01:55 NE 8 G 18 10.00 Fair CLR 64.4 45.7 51% 29.84 0.0
06 01:35 N 9 10.00 Fair CLR 66 45.3 47% 29.85 0.0
06 01:15 NE 7 10.00 Fair CLR 67.6 46.4 47% 29.83 0.0
06 00:55 E 9 10.00 Fair CLR 69.1 46.2 82.6 68.9 44% 29.83 0.0
06 00:35 NE 9 10.00 Fair CLR 70.7 45.5 41% 29.83 0.0
06 00:15 N 12 G 18 10.00 Fair CLR 72.5 41.9 33% 29.83 0.0
05 23:35 E 7 10.00 Fair CLR 69.1 43.7 40% 29.82 0.0
05 23:15 SE 6 10.00 Fair CLR 70.2 43 38% 29.82 0.0
05 22:55 SE 5 10.00 Fair CLR 71.1 43 36% 29.8 0.0
05 22:35 SE 6 10.00 Fair CLR 70.7 43.2 37% 29.8 0.0
05 22:15 SE 7 10.00 Fair CLR 70.3 43.9 39% 29.8 0.0
05 21:55 SE 8 10.00 Fair CLR 71.8 43.2 36% 29.79 0.0
05 21:35 Calm 10.00 Fair CLR 73.2 43.7 35% 29.78 0.0
05 21:15 SW 5 10.00 Fair CLR 74.3 41.9 31% 29.78 0.0
05 20:55 SW 8 10.00 Fair CLR 76.1 41 28% 77 29.78 0.0
05 20:35 W 6 10.00 Fair CLR 78.3 39 24% 78 29.78 0.0
05 20:15 W 9 G 16 10.00 Fair CLR 79.5 39 23% 79 29.77 0.0
05 19:55 W 21 G 37 10.00 Fair and Breezy CLR 80.6 37.9 22% 79 29.78 0.0
05 19:35 W 25 G 38 10.00 Fair and Breezy CLR 81.3 37.8 21% 79 29.78 0.0
05 19:15 W 29 G 43 10.00 Fair and Windy CLR 82 37.8 21% 80 29.78 0.0
05 18:55 W 38 G 45 10.00 Fair and Windy CLR 82.8 37 90 82.6 19% 80 29.78 0.0
05 18:35 W 29 G 41 10.00 Fair and Windy CLR 83.8 34.7 17% 81 29.77 0.0
05 18:15 W 20 G 33 10.00 Fair CLR 84.6 36.9 18% 82 29.75 0.0
05 17:55 W 13 10.00 Fair CLR 84.4 37.4 19% 82 29.76 0.0
05 17:35 W 16 10.00 Fair CLR 83.8 36.9 19% 81 29.76 0.0
05 17:15 NW 17 10.00 Fair CLR 84.4 36.3 18% 81 29.77 0.0
05 16:55 NW 17 10.00 Fair CLR 83.5 35.2 18% 81 29.77 0.0
05 16:35 W 21 G 37 10.00 Fair and Breezy CLR 84.7 35.2 17% 82 29.78 0.0
05 16:15 W 21 G 43 10.00 Fair and Breezy CLR 85.8 35.4 17% 83 29.78 0.0
05 15:35 W 26 G 38 10.00 Fair and Windy CLR 85.6 36.5 17% 82 29.78 0.0
05 15:15 W 24 G 40 10.00 Fair and Breezy CLR 86.5 36 16% 83 29.79 0.0
05 14:55 W 26 G 46 7.00 Fair and Windy CLR 87.3 35.6 16% 84 29.79 0.0
05 14:35 W 26 G 45 10.00 Fair and Windy CLR 88.9 36.9 16% 85 29.78 0.0
05 14:15 W 28 G 43 10.00 Fair and Windy CLR 88.3 36 16% 85 29.79 0.0
05 13:55 W 28 G 44 10.00 Fair and Windy CLR 87.8 35.4 15% 84 29.79 0.0
05 13:35 W 23 G 44 10.00 Fair and Breezy CLR 87.6 34.9 15% 84 29.8 0.0
05 13:15 W 30 G 48 10.00 Fair and Windy CLR 87.6 34.7 15% 84 29.8 0.0
05 12:55 W 14 G 32 10.00 Fair CLR 86.7 34.7 87.3 64.4 16% 83 29.8 0.0
05 12:35 NW 12 G 29 10.00 Fair CLR 85.1 35.2 17% 82 29.8 0.0
05 12:15 NW 13 G 24 10.00 Fair CLR 84.7 36.3 18% 82 29.8 0.0
05 11:55 W 20 G 35 10.00 Fair CLR 84.2 35.6 18% 81 29.81 0.0
05 11:35 W 16 G 30 10.00 Fair CLR 83.3 36 18% 81 29.81 0.0
05 11:15 W 13 G 22 10.00 Fair CLR 81.7 37.8 21% 80 29.81 0.0
05 10:55 W 12 G 18 10.00 Fair CLR 79.9 45.5 30% 79 29.8 0.0
05 10:15 W 15 10.00 Fair CLR 76.1 51.8 43% 78 29.8 0.0
05 09:55 W 17 10.00 Fair CLR 75 53.4 47% 78 29.8 0.0
05 09:35 W 18 10.00 Fair CLR 73 55.9 55% 29.8 0.0
05 09:15 SW 18 10.00 Fair CLR 72 56.8 59% 29.79 0.0
05 08:55 SW 17 10.00 Fair CLR 70.2 58.3 66% 29.79 0.0
05 08:35 SW 17 10.00 Fair CLR 68 59 73% 29.78 0.0
05 08:15 SW 16 10.00 Fair CLR 66.2 59.4 79% 29.77 0.0
05 07:55 SW 15 10.00 Fair CLR 65.5 59.4 81% 29.77 0.0
05 07:35 SW 15 10.00 Fair CLR 64.8 59.2 82% 29.76 0.0
05 07:15 SW 14 10.00 Fair CLR 64.6 58.8 82% 29.76 0.0
05 06:55 SW 13 10.00 Fair CLR 64.8 58.8 73 64.6 81% 29.75 0.0
05 06:35 SW 13 10.00 Fair CLR 65.7 59 79% 29.75 0.0
05 06:15 SW 14 10.00 Fair CLR 66.7 59.2 77% 29.75 0.0
05 05:55 SW 15 10.00 Fair CLR 67.1 59.2 76% 29.75 0.0
05 05:35 SW 15 10.00 Fair CLR 67.3 59.2 75% 29.75 0.0
05 05:15 SW 15 10.00 Fair CLR 67.1 59.2 76% 29.74 0.0
05 04:55 SW 14 10.00 Fair CLR 67.1 59 75% 29.73 0.0
05 04:35 SW 16 10.00 Fair CLR 67.5 58.8 74% 29.74 0.0
05 04:15 SW 16 10.00 Fair CLR 67.6 58.6 73% 29.73 0.0
05 03:55 SW 15 10.00 Fair CLR 67.8 58.5 72% 29.73 0.0
05 03:35 SW 15 G 20 10.00 Fair CLR 68.5 58.3 70% 29.74 0.0
05 03:15 SW 14 10.00 Fair CLR 69.3 58.3 68% 29.74 0.0
05 02:55 SW 18 10.00 Fair CLR 70.2 58.1 66% 29.75 0.0
05 02:35 SW 18 10.00 Fair CLR 70.5 57.7 64% 29.75 0.0
05 02:15 SW 18 10.00 Fair CLR 71.1 57.6 63% 29.75 0.0
05 01:55 SW 18 10.00 Fair CLR 71.6 57.2 61% 29.76 0.0
05 01:35 SW 16 10.00 Fair CLR 72 57 59% 29.76 0.0
05 01:15 SW 21 10.00 Fair and Breezy CLR 72.7 56.8 58% 29.76 0.0
05 00:35 SW 20 G 26 10.00 Fair CLR 73.9 56.1 54% 29.77 0.0
05 00:15 SW 20 G 25 10.00 Fair CLR 74.8 55.8 52% 29.77 0.0
04 23:55 SW 20 G 24 10.00 Fair CLR 75.6 55.4 50% 78 29.77 0.0
04 23:15 SW 18 10.00 Fair CLR 77.2 54.5 46% 79 29.77 0.0
04 22:55 SW 18 G 25 10.00 Fair CLR 77.9 54 44% 79 29.77 0.0
04 22:35 SW 18 10.00 Fair CLR 78.4 53.2 42% 79 29.76 0.0
04 22:15 SW 21 G 31 10.00 Fair and Breezy CLR 79.7 52.9 39% 80 29.75 0.0
04 21:55 SW 21 10.00 Fair and Breezy CLR 80.1 50.5 36% 80 29.75 0.0
04 21:35 SW 21 G 25 10.00 Fair and Breezy CLR 81.3 44.1 27% 80 29.74 0.0
04 21:15 SW 17 10.00 Fair CLR 80.2 39.2 23% 79 29.72 0.0
04 20:55 SW 18 10.00 Fair CLR 82.4 37.6 20% 80 29.72 0.0
04 20:35 SW 22 G 33 10.00 Fair and Breezy CLR 82.8 37.4 20% 80 29.72 0.0
04 20:15 SW 14 10.00 Fair CLR 83.1 37.6 20% 81 29.71 0.0
04 19:55 SW 18 10.00 Fair CLR 84.7 36.3 18% 82 29.71 0.0
04 19:35 SW 21 10.00 Fair and Breezy CLR 86.2 35.6 16% 83 29.72 0.0
04 19:15 SW 22 G 32 10.00 Fair and Breezy CLR 86.5 34 15% 83 29.73 0.0
04 18:55 SW 23 G 44 10.00 Fair and Breezy CLR 86.9 32.2 91 82.6 14% 83 29.73 0.0
04 18:35 W 31 G 45 10.00 Fair and Windy CLR 87.6 29.1 12% 84 29.74 0.0
04 18:15 W 28 G 46 10.00 Fair and Windy CLR 88.3 26.6 11% 85 29.74 0.0
04 17:55 SW 30 G 44 10.00 Fair and Windy CLR 88.7 29.5 12% 85 29.75 0.0
04 17:35 SW 36 G 47 10.00 Fair and Windy CLR 89.6 30.9 12% 86 29.76 0.0
04 17:15 SW 36 G 43 10.00 Fair and Windy CLR 89.8 36.3 15% 86 29.76 0.0
04 16:55 SW 30 G 47 10.00 Fair and Windy CLR 90.1 35.4 14% 86 29.76 0.0
04 16:35 SW 35 G 45 10.00 Fair and Windy CLR 90.3 38.7 16% 86 29.76 0.0
04 16:15 W 29 G 46 10.00 Fair and Windy CLR 90 39.2 17% 86 29.77 0.0
04 15:55 SW 32 G 43 10.00 Fair and Windy CLR 90.5 40.1 17% 87 29.79 0.0
04 15:35 W 38 G 45 10.00 Fair and Windy CLR 89.6 42.4 19% 86 29.8 0.0
04 14:55 SW 21 G 43 10.00 Fair and Breezy CLR 88.7 46.4 23% 85 29.81 0.0
04 14:35 SW 25 G 36 10.00 Fair and Breezy CLR 88.2 49.3 26% 85 29.82 0.0
04 14:15 SW 23 G 35 10.00 Fair and Breezy CLR 88 50 27% 85 29.83 0.0
04 13:55 SW 18 G 28 10.00 Fair CLR 86.5 50.9 29% 84 29.83 0.0
04 13:35 SW 13 G 20 10.00 Fair CLR 84.4 51.1 32% 83 29.84 0.0
04 13:15 SW 21 10.00 Fair and Breezy CLR 84.4 51.1 32% 83 29.86 0.0
04 12:55 SW 21 G 29 10.00 Fair and Breezy CLR 83.1 51.6 83.3 61 34% 82 29.87 0.0
04 12:35 SW 18 G 24 10.00 Fair CLR 81.9 51.4 35% 81 29.87 0.0
04 12:15 SW 20 G 29 10.00 Fair CLR 80.8 51.3 36% 80 29.89 0.0
04 11:55 SW 16 G 33 10.00 Fair CLR 78.8 52.3 40% 79 29.89 0.0
04 11:35 SW 20 10.00 Fair CLR 77.2 51.4 41% 78 29.89 0.0
04 11:15 SW 21 10.00 Fair and Breezy CLR 75.7 52 44% 78 29.89 0.0
04 10:55 S 15 G 22 10.00 Fair CLR 73 51.6 47% 29.9 0.0
04 10:35 SW 20 G 24 10.00 Fair CLR 71.4 51.4 49% 29.9 0.0
04 10:15 SW 18 10.00 Fair CLR 69.8 51.1 52% 29.9 0.0
04 09:55 SW 18 10.00 Fair CLR 70.2 51.1 51% 29.91 0.0
04 09:35 SW 20 10.00 Fair CLR 68 50.9 54% 29.9 0.0
04 09:15 SW 15 10.00 Fair CLR 66 50.7 58% 29.91 0.0
04 08:55 S 15 G 24 10.00 Fair CLR 65.3 50.4 59% 29.91 0.0
04 08:35 SW 13 G 20 10.00 Fair CLR 64 50 60% 29.89 0.0
04 08:15 S 12 10.00 Fair CLR 63 49.5 62% 29.89 0.0
04 07:55 S 12 10.00 Fair CLR 62.2 49.1 62% 29.89 0.0
04 07:35 SW 10 10.00 Fair CLR 61.5 48.6 63% 29.87 0.0
04 07:15 S 9 10.00 Fair CLR 61.2 48 62% 29.87 0.0
04 06:55 SW 12 10.00 Fair CLR 61.2 47.8 64.8 61 62% 29.87 0.0
04 06:35 SW 12 10.00 Fair CLR 61.3 47.8 61% 29.86 0.0
04 06:15 S 7 10.00 Fair CLR 61.3 47.7 61% 29.86 0.0
04 05:55 SW 8 10.00 Fair CLR 61.3 47.7 61% 29.86 0.0
04 05:35 S 9 10.00 Fair CLR 61.3 47.8 61% 29.87 0.0
04 05:15 S 7 10.00 Fair CLR 61.3 47.8 61% 29.87 0.0
04 04:55 S 7 10.00 Fair CLR 61.9 47.8 60% 29.87 0.0
04 04:35 SW 12 10.00 Fair CLR 62.1 47.8 60% 29.88 0.0
04 04:15 SW 14 10.00 Fair CLR 62.1 47.8 60% 29.89 0.0
04 03:55 SW 16 10.00 Fair CLR 62.6 47.7 58% 29.9 0.0
04 03:35 SW 16 10.00 Fair CLR 62.6 47.7 58% 29.9 0.0
04 03:15 SW 16 10.00 Fair CLR 62.6 47.7 58% 29.91 0.0
04 02:55 S 14 10.00 Fair CLR 62.8 47.5 58% 29.91 0.0
04 02:35 SW 15 10.00 Fair CLR 63 47.3 57% 29.93 0.0
04 02:15 S 16 10.00 Fair CLR 63.1 47.3 56% 29.93 0.0
04 01:55 SW 16 10.00 Fair CLR 63.5 46.9 55% 29.94 0.0
04 01:35 S 16 10.00 Fair CLR 63.7 46.9 55% 29.95 0.0
04 01:15 S 15 10.00 Fair CLR 64.2 46.8 53% 29.96 0.0
04 00:55 S 14 10.00 Fair CLR 64.8 46.4 75 64.6 52% 29.96 0.0
04 00:35 S 15 10.00 Fair CLR 64.9 46.2 51% 29.95 0.0
04 00:15 S 13 10.00 Fair CLR 65.3 45.9 50% 29.96 0.0
03 23:55 S 13 10.00 Fair CLR 65.8 45.7 48% 29.98 0.0
Date Time (cdt) Wind (mph) Vis. (mi.) Weather Sky Cond. Air Dwpt Max. Min. Relative Humidity Wind Chill (°F) Heat Index (°F) altimeter (in) sea level (mb) 1 hr 3 hr 6 hr
6 hour
Temperature (ºF) Pressure Precipitation (in)